sensor_id;sensor_type;location;lat;lon;timestamp;P1;durP1;ratioP1;P2;durP2;ratioP2
7585;SDS011;12459;42.646;23.292;2024-01-30T00:14:51;4.47;;;4.17;;
7585;SDS011;12459;42.646;23.292;2024-01-30T00:29:55;4.50;;;4.20;;
7585;SDS011;12459;42.646;23.292;2024-01-30T00:44:57;3.87;;;3.57;;
7585;SDS011;12459;42.646;23.292;2024-01-30T01:15:01;3.70;;;3.40;;
7585;SDS011;12459;42.646;23.292;2024-01-30T01:30:04;4.00;;;3.70;;
7585;SDS011;12459;42.646;23.292;2024-01-30T01:45:07;3.73;;;3.43;;
7585;SDS011;12459;42.646;23.292;2024-01-30T02:00:09;3.63;;;3.33;;
7585;SDS011;12459;42.646;23.292;2024-01-30T02:15:13;3.80;;;3.50;;
7585;SDS011;12459;42.646;23.292;2024-01-30T02:30:15;4.47;;;4.17;;
7585;SDS011;12459;42.646;23.292;2024-01-30T02:45:17;4.37;;;4.07;;
7585;SDS011;12459;42.646;23.292;2024-01-30T03:00:19;3.97;;;3.67;;
7585;SDS011;12459;42.646;23.292;2024-01-30T03:30:24;3.37;;;3.07;;
7585;SDS011;12459;42.646;23.292;2024-01-30T03:45:26;3.70;;;3.40;;
7585;SDS011;12459;42.646;23.292;2024-01-30T04:00:27;4.47;;;4.17;;
7585;SDS011;12459;42.646;23.292;2024-01-30T04:15:29;4.50;;;4.20;;
7585;SDS011;12459;42.646;23.292;2024-01-30T04:30:31;4.00;;;3.70;;
7585;SDS011;12459;42.646;23.292;2024-01-30T04:45:33;4.20;;;3.90;;
7585;SDS011;12459;42.646;23.292;2024-01-30T05:00:35;4.40;;;4.10;;
7585;SDS011;12459;42.646;23.292;2024-01-30T05:15:36;4.33;;;4.03;;
7585;SDS011;12459;42.646;23.292;2024-01-30T05:30:38;4.43;;;4.13;;
7585;SDS011;12459;42.646;23.292;2024-01-30T05:45:40;3.93;;;3.63;;
7585;SDS011;12459;42.646;23.292;2024-01-30T06:00:42;3.40;;;3.10;;
7585;SDS011;12459;42.646;23.292;2024-01-30T06:15:44;4.33;;;4.03;;
7585;SDS011;12459;42.646;23.292;2024-01-30T06:30:46;3.43;;;3.13;;
7585;SDS011;12459;42.646;23.292;2024-01-30T06:45:48;4.23;;;3.93;;
7585;SDS011;12459;42.646;23.292;2024-01-30T07:00:49;3.97;;;3.67;;
7585;SDS011;12459;42.646;23.292;2024-01-30T07:15:51;4.13;;;3.83;;
7585;SDS011;12459;42.646;23.292;2024-01-30T07:30:53;4.20;;;3.90;;
7585;SDS011;12459;42.646;23.292;2024-01-30T07:45:55;4.30;;;4.00;;
7585;SDS011;12459;42.646;23.292;2024-01-30T08:00:57;5.00;;;4.70;;
7585;SDS011;12459;42.646;23.292;2024-01-30T08:16:00;4.17;;;3.87;;
7585;SDS011;12459;42.646;23.292;2024-01-30T08:31:02;5.73;;;5.33;;
7585;SDS011;12459;42.646;23.292;2024-01-30T08:46:04;5.47;;;5.07;;
7585;SDS011;12459;42.646;23.292;2024-01-30T09:01:06;4.87;;;4.57;;
7585;SDS011;12459;42.646;23.292;2024-01-30T09:16:08;5.73;;;5.33;;
7585;SDS011;12459;42.646;23.292;2024-01-30T09:31:10;4.80;;;4.50;;
7585;SDS011;12459;42.646;23.292;2024-01-30T09:46:12;4.87;;;4.57;;
7585;SDS011;12459;42.646;23.292;2024-01-30T10:01:18;5.63;;;5.23;;
7585;SDS011;12459;42.646;23.292;2024-01-30T10:16:20;6.07;;;5.67;;
7585;SDS011;12459;42.646;23.292;2024-01-30T10:31:22;6.97;;;6.57;;
7585;SDS011;12459;42.646;23.292;2024-01-30T10:46:26;6.43;;;6.03;;
7585;SDS011;12459;42.646;23.292;2024-01-30T11:01:33;6.90;;;6.50;;
7585;SDS011;12459;42.646;23.292;2024-01-30T11:16:37;4.97;;;4.67;;
7585;SDS011;12459;42.646;23.292;2024-01-30T11:31:54;6.70;;;6.30;;
7585;SDS011;12459;42.646;23.292;2024-01-30T11:46:57;5.80;;;5.40;;
7585;SDS011;12459;42.646;23.292;2024-01-30T12:01:58;6.87;;;6.47;;
7585;SDS011;12459;42.646;23.292;2024-01-30T12:17:00;6.90;;;6.50;;
7585;SDS011;12459;42.646;23.292;2024-01-30T12:32:02;8.03;;;7.53;;
7585;SDS011;12459;42.646;23.292;2024-01-30T12:47:04;8.20;;;7.70;;
7585;SDS011;12459;42.646;23.292;2024-01-30T13:02:06;6.97;;;6.57;;
7585;SDS011;12459;42.646;23.292;2024-01-30T13:17:08;6.07;;;5.67;;
7585;SDS011;12459;42.646;23.292;2024-01-30T13:32:10;6.57;;;6.17;;
7585;SDS011;12459;42.646;23.292;2024-01-30T13:47:12;6.50;;;6.10;;
7585;SDS011;12459;42.646;23.292;2024-01-30T14:02:13;5.63;;;5.23;;
7585;SDS011;12459;42.646;23.292;2024-01-30T14:32:17;5.63;;;5.23;;
7585;SDS011;12459;42.646;23.292;2024-01-30T14:47:19;5.73;;;5.33;;
7585;SDS011;12459;42.646;23.292;2024-01-30T15:02:22;4.73;;;4.43;;
7585;SDS011;12459;42.646;23.292;2024-01-30T15:17:24;4.70;;;4.40;;
7585;SDS011;12459;42.646;23.292;2024-01-30T15:32:26;4.87;;;4.57;;
7585;SDS011;12459;42.646;23.292;2024-01-30T15:47:28;4.70;;;4.40;;
7585;SDS011;12459;42.646;23.292;2024-01-30T16:02:30;4.37;;;4.07;;
7585;SDS011;12459;42.646;23.292;2024-01-30T16:17:32;4.20;;;3.90;;
7585;SDS011;12459;42.646;23.292;2024-01-30T16:32:37;4.77;;;4.47;;
7585;SDS011;12459;42.646;23.292;2024-01-30T16:47:39;4.40;;;4.10;;
7585;SDS011;12459;42.646;23.292;2024-01-30T17:02:44;3.57;;;3.27;;
7585;SDS011;12459;42.646;23.292;2024-01-30T17:32:48;3.37;;;3.07;;
7585;SDS011;12459;42.646;23.292;2024-01-30T18:02:53;3.60;;;3.30;;
7585;SDS011;12459;42.646;23.292;2024-01-30T18:17:57;3.40;;;3.10;;
7585;SDS011;12459;42.646;23.292;2024-01-30T18:32:58;3.23;;;2.93;;
7585;SDS011;12459;42.646;23.292;2024-01-30T18:48:00;3.07;;;2.83;;
7585;SDS011;12459;42.646;23.292;2024-01-30T19:03:02;3.47;;;3.17;;
7585;SDS011;12459;42.646;23.292;2024-01-30T19:18:04;3.17;;;2.90;;
7585;SDS011;12459;42.646;23.292;2024-01-30T19:33:07;2.93;;;2.73;;
7585;SDS011;12459;42.646;23.292;2024-01-30T19:48:09;2.77;;;2.57;;
7585;SDS011;12459;42.646;23.292;2024-01-30T20:03:11;3.00;;;2.80;;
7585;SDS011;12459;42.646;23.292;2024-01-30T20:18:12;3.20;;;2.93;;
7585;SDS011;12459;42.646;23.292;2024-01-30T20:33:14;2.73;;;2.53;;
7585;SDS011;12459;42.646;23.292;2024-01-30T20:48:17;2.80;;;2.60;;
7585;SDS011;12459;42.646;23.292;2024-01-30T21:03:21;2.90;;;2.70;;
7585;SDS011;12459;42.646;23.292;2024-01-30T21:18:23;2.67;;;2.47;;
7585;SDS011;12459;42.646;23.292;2024-01-30T21:33:25;2.50;;;2.30;;
7585;SDS011;12459;42.646;23.292;2024-01-30T21:48:27;2.53;;;2.33;;
7585;SDS011;12459;42.646;23.292;2024-01-30T22:03:29;2.50;;;2.30;;
7585;SDS011;12459;42.646;23.292;2024-01-30T22:18:30;2.63;;;2.43;;
7585;SDS011;12459;42.646;23.292;2024-01-30T22:33:32;2.70;;;2.50;;
7585;SDS011;12459;42.646;23.292;2024-01-30T22:48:34;2.50;;;2.30;;
7585;SDS011;12459;42.646;23.292;2024-01-30T23:03:36;2.53;;;2.33;;
7585;SDS011;12459;42.646;23.292;2024-01-30T23:18:38;2.53;;;2.33;;
7585;SDS011;12459;42.646;23.292;2024-01-30T23:33:39;2.40;;;2.20;;
7585;SDS011;12459;42.646;23.292;2024-01-30T23:48:41;2.43;;;2.23;;
